Jamestown, South Carolina
Current Conditions -  °F | °C
As of 9:15 PM on Monday 24 Nov 2014 (Local Time) from KMKS Reporting Station
Light Rain Light Rain  
Wind Chill: 19°   Ceiling: Unl
Heat Index: 19°   Visibility: 7mi
Dew Point: 19°   Wind: 0mph
Humidity: 100%   Direction: NA
Pressure: 29.95"   Gusts: NA
Location:  33.29°N, 79.69°W
Report Text: KMKS 250215Z AUTO 00000KT 7SM -RA SCT007 SCT017 SCT023 19/19 A2995 RMK AO2
Loading
Personal Weather Stations






























Interactive Weather Map New forecast layout! Learn more

10-Day Weather Forecast

Advertisements
Track Severe Weather on mobile